createdAt,value
2023-03-01T00:01:52.134Z,14.30
2023-03-01T00:04:20.655Z,16.50
2023-03-01T00:06:49.429Z,14.40
2023-03-01T00:09:18.529Z,15.90
2023-03-01T00:11:47.643Z,14.90
2023-03-01T00:14:18.676Z,16.00
2023-03-01T00:16:47.658Z,16.20
2023-03-01T00:19:20.894Z,19.10
2023-03-01T00:21:49.760Z,17.00
2023-03-01T00:24:18.211Z,16.00
2023-03-01T00:26:47.767Z,18.80
2023-03-01T00:29:16.404Z,18.90
2023-03-01T00:31:44.886Z,17.40
2023-03-01T00:34:13.577Z,20.10
2023-03-01T00:36:42.253Z,20.50
2023-03-01T00:39:16.461Z,17.80
2023-03-01T00:41:45.773Z,17.60
2023-03-01T00:44:14.455Z,20.40
2023-03-01T00:46:42.915Z,16.30
2023-03-01T00:49:11.959Z,19.40
2023-03-01T00:51:42.643Z,17.70
2023-03-01T00:54:11.359Z,19.40
2023-03-01T00:56:39.972Z,17.70
2023-03-01T00:59:08.723Z,18.30
2023-03-01T01:01:37.619Z,19.20
2023-03-01T01:04:11.010Z,22.30
2023-03-01T01:06:46.410Z,18.60
2023-03-01T01:09:18.872Z,18.30
2023-03-01T01:11:52.359Z,18.80
2023-03-01T01:14:21.743Z,19.70
2023-03-01T01:16:50.918Z,20.10
2023-03-01T01:19:19.713Z,20.10
2023-03-01T01:21:49.778Z,17.80
2023-03-01T01:24:19.437Z,18.60
2023-03-01T01:29:17.247Z,17.60
2023-03-01T01:31:45.810Z,16.70
2023-03-01T01:34:20.897Z,18.50
2023-03-01T01:36:57.327Z,21.40
2023-03-01T01:39:26.028Z,20.20
2023-03-01T01:41:54.905Z,20.00
2023-03-01T01:44:28.105Z,18.40
2023-03-01T01:47:21.714Z,19.30
2023-03-01T01:49:57.803Z,19.30
2023-03-01T01:52:35.268Z,19.00
2023-03-01T01:55:10.456Z,18.70
2023-03-01T01:57:44.446Z,18.10
2023-03-01T02:00:27.023Z,19.40
2023-03-01T02:03:09.389Z,20.20
2023-03-01T02:05:44.564Z,19.40
2023-03-01T02:08:16.010Z,20.70
2023-03-01T02:10:46.501Z,18.90
2023-03-01T02:13:15.663Z,18.90
2023-03-01T02:15:47.262Z,19.30
2023-03-01T02:18:20.124Z,19.60
2023-03-01T02:21:27.422Z,22.20
2023-03-01T02:23:57.215Z,19.40
2023-03-01T02:26:36.240Z,20.30
2023-03-01T02:29:06.861Z,20.30
2023-03-01T02:31:44.573Z,19.20
2023-03-01T02:34:22.126Z,20.00
2023-03-01T02:37:00.985Z,19.30
2023-03-01T02:39:38.298Z,19.90
2023-03-01T02:42:07.571Z,21.00
2023-03-01T02:44:36.156Z,17.60
2023-03-01T02:47:05.752Z,19.50
2023-03-01T02:49:37.621Z,21.30
2023-03-01T02:52:49.008Z,20.30
2023-03-01T02:55:19.357Z,20.90
2023-03-01T02:57:52.559Z,17.80
2023-03-01T03:00:27.662Z,21.30
2023-03-01T03:02:58.355Z,22.50
2023-03-01T03:05:32.812Z,22.80
2023-03-01T03:08:04.399Z,27.00
2023-03-01T03:10:40.855Z,24.80
2023-03-01T03:13:14.087Z,26.60
2023-03-01T03:15:44.484Z,26.90
2023-03-01T03:18:17.432Z,29.10
2023-03-01T03:20:46.973Z,28.00
2023-03-01T03:23:15.673Z,24.10
2023-03-01T03:25:44.321Z,30.00
2023-03-01T03:28:12.887Z,25.60
2023-03-01T03:30:43.104Z,26.20
2023-03-01T03:33:13.940Z,31.10
2023-03-01T03:35:48.861Z,27.20
2023-03-01T03:38:23.193Z,31.20
2023-03-01T03:41:06.633Z,28.40
2023-03-01T03:43:39.550Z,30.90
2023-03-01T03:46:08.811Z,30.70
2023-03-01T03:48:43.754Z,28.80
2023-03-01T03:51:18.219Z,33.30
2023-03-01T03:53:47.237Z,29.50
2023-03-01T03:56:16.053Z,32.10
2023-03-01T03:58:44.673Z,29.90
2023-03-01T04:01:13.157Z,32.30
2023-03-01T04:03:42.926Z,34.20
2023-03-01T04:06:11.466Z,33.70
2023-03-01T04:08:40.633Z,30.30
2023-03-01T04:11:27.936Z,31.10
2023-03-01T04:14:00.292Z,32.50
2023-03-01T04:16:29.314Z,32.30
2023-03-01T04:19:01.007Z,31.40
2023-03-01T04:21:29.734Z,30.60
2023-03-01T04:23:58.316Z,31.10
2023-03-01T04:26:28.313Z,32.80
2023-03-01T04:28:56.813Z,32.60
2023-03-01T04:31:25.518Z,36.40
2023-03-01T04:33:58.041Z,34.00
2023-03-01T04:36:31.146Z,36.70
2023-03-01T04:39:00.163Z,36.10
2023-03-01T04:41:28.860Z,33.00
2023-03-01T04:43:57.218Z,35.80
2023-03-01T04:46:26.802Z,39.50
2023-03-01T04:48:55.413Z,39.30
2023-03-01T04:51:24.008Z,33.80
2023-03-01T04:53:52.712Z,38.60
2023-03-01T04:56:21.366Z,40.00
2023-03-01T04:58:50.502Z,38.10
2023-03-01T05:01:21.450Z,39.70
2023-03-01T05:03:53.085Z,36.70
2023-03-01T05:06:22.528Z,37.00
2023-03-01T05:08:51.013Z,39.40
2023-03-01T05:11:19.643Z,35.30
2023-03-01T05:13:48.255Z,33.60
2023-03-01T05:16:51.214Z,34.70
2023-03-01T05:19:24.007Z,38.30
2023-03-01T05:22:07.697Z,40.40
2023-03-01T05:24:36.858Z,36.50
2023-03-01T05:27:06.184Z,34.50
2023-03-01T05:29:36.125Z,37.70
2023-03-01T05:32:05.086Z,33.50
2023-03-01T05:34:37.249Z,35.60
2023-03-01T05:37:06.436Z,36.50
2023-03-01T05:39:35.151Z,34.90
2023-03-01T05:42:03.701Z,36.50
2023-03-01T05:44:32.702Z,32.50
2023-03-01T05:47:01.593Z,35.00
2023-03-01T05:49:30.022Z,38.20
2023-03-01T05:51:58.478Z,37.00
2023-03-01T05:54:26.976Z,35.80
2023-03-01T05:56:55.454Z,36.20
2023-03-01T05:59:27.083Z,36.00
2023-03-01T06:01:55.609Z,32.80
2023-03-01T06:04:24.117Z,36.30
2023-03-01T06:06:55.483Z,34.30
2023-03-01T06:09:24.398Z,38.30
2023-03-01T06:11:53.024Z,35.70
2023-03-01T06:14:22.860Z,34.80
2023-03-01T06:16:51.739Z,35.20
2023-03-01T06:19:20.338Z,37.90
2023-03-01T06:21:55.072Z,34.80
2023-03-01T06:24:24.528Z,36.10
2023-03-01T06:26:54.432Z,33.90
2023-03-01T06:29:24.213Z,35.90
2023-03-01T06:31:52.738Z,36.10
2023-03-01T06:34:22.912Z,34.00
2023-03-01T06:36:51.863Z,33.70
2023-03-01T06:39:20.455Z,32.40
2023-03-01T06:41:49.646Z,30.90
2023-03-01T06:44:20.858Z,31.50
2023-03-01T06:46:49.501Z,31.80
2023-03-01T06:49:19.036Z,28.60
2023-03-01T06:51:48.061Z,31.30
2023-03-01T06:54:16.998Z,37.70
2023-03-01T06:56:48.544Z,36.00
2023-03-01T06:59:18.900Z,28.10
2023-03-01T07:01:47.538Z,29.80
2023-03-01T07:04:16.080Z,33.20
2023-03-01T07:06:44.765Z,32.20
2023-03-01T07:09:13.376Z,31.80
2023-03-01T07:11:42.526Z,37.10
2023-03-01T07:14:11.100Z,34.70
2023-03-01T07:16:39.630Z,33.60
2023-03-01T07:19:08.624Z,33.90
2023-03-01T07:21:40.094Z,25.40
2023-03-01T07:24:09.558Z,34.30
2023-03-01T07:26:44.260Z,31.90
2023-03-01T07:29:13.544Z,28.60
2023-03-01T07:31:43.514Z,29.10
2023-03-01T07:34:12.121Z,28.90
2023-03-01T07:36:44.242Z,30.90
2023-03-01T07:39:13.184Z,28.50
2023-03-01T07:41:42.099Z,30.70
2023-03-01T07:44:11.145Z,26.70
2023-03-01T07:46:39.734Z,32.80
2023-03-01T07:49:11.226Z,31.50
2023-03-01T07:51:39.794Z,32.40
2023-03-01T07:54:08.947Z,26.00
2023-03-01T07:56:38.042Z,28.10
2023-03-01T07:59:06.766Z,26.70
2023-03-01T08:01:36.852Z,28.70
2023-03-01T08:04:09.297Z,28.90
2023-03-01T08:06:38.457Z,27.20
2023-03-01T08:09:07.913Z,29.20
2023-03-01T08:11:36.591Z,30.00
2023-03-01T08:14:05.141Z,31.70
2023-03-01T08:16:36.611Z,29.20
2023-03-01T08:19:16.537Z,29.80
2023-03-01T08:21:45.520Z,26.50
2023-03-01T08:24:14.179Z,30.10
2023-03-01T08:26:45.647Z,27.80
2023-03-01T08:29:15.344Z,30.00
2023-03-01T08:34:17.056Z,28.30
2023-03-01T08:36:48.702Z,32.10
2023-03-01T08:39:20.467Z,29.20
2023-03-01T08:41:49.549Z,31.60
2023-03-01T08:44:18.236Z,34.20
2023-03-01T08:46:47.275Z,30.90
2023-03-01T08:49:20.016Z,30.60
2023-03-01T08:51:49.800Z,34.40
2023-03-01T08:56:51.241Z,27.20
2023-03-01T08:59:20.784Z,29.00
2023-03-01T09:01:49.605Z,24.80
2023-03-01T09:04:18.259Z,24.30
2023-03-01T09:06:47.197Z,24.80
2023-03-01T09:09:18.642Z,26.20
2023-03-01T09:11:48.585Z,25.20
2023-03-01T09:14:17.408Z,24.70
2023-03-01T09:16:46.474Z,24.50
2023-03-01T09:19:15.792Z,22.90
2023-03-01T09:21:53.612Z,25.50
2023-03-01T09:24:24.840Z,24.30
2023-03-01T09:26:57.766Z,27.30
2023-03-01T09:29:27.594Z,29.30
2023-03-01T09:31:56.624Z,24.90
2023-03-01T09:34:25.635Z,24.80
2023-03-01T09:36:54.484Z,21.40
2023-03-01T09:39:23.094Z,19.50
2023-03-01T09:42:06.499Z,24.80
2023-03-01T09:45:13.294Z,23.20
2023-03-01T09:47:45.674Z,22.10
2023-03-01T09:50:18.237Z,18.70
2023-03-01T09:53:12.794Z,20.30
2023-03-01T09:56:20.528Z,18.50
2023-03-01T09:59:12.073Z,19.40
2023-03-01T10:02:16.228Z,17.70
2023-03-01T10:04:55.497Z,17.90
2023-03-01T10:07:29.354Z,19.30
2023-03-01T10:09:58.858Z,22.70
2023-03-01T10:12:44.197Z,18.90
2023-03-01T10:15:31.671Z,17.10
2023-03-01T10:18:18.621Z,22.30
2023-03-01T10:21:07.268Z,14.40
2023-03-01T10:23:37.719Z,15.70
2023-03-01T10:26:40.941Z,16.30
2023-03-01T10:29:17.050Z,15.60
2023-03-01T10:31:52.173Z,16.10
2023-03-01T10:34:35.927Z,16.00
2023-03-01T10:37:22.859Z,16.50
2023-03-01T10:40:02.060Z,17.90
2023-03-01T10:42:35.570Z,16.90
2023-03-01T10:45:34.179Z,15.60
2023-03-01T10:48:25.783Z,14.80
2023-03-01T10:51:00.132Z,21.40
2023-03-01T10:53:42.958Z,13.90
2023-03-01T10:56:16.056Z,16.90
2023-03-01T10:59:07.374Z,18.80
2023-03-01T11:01:37.363Z,18.70
2023-03-01T11:04:10.233Z,19.60
2023-03-01T11:06:42.270Z,16.10
2023-03-01T11:09:24.440Z,18.90
2023-03-01T11:11:55.331Z,19.50
2023-03-01T11:14:37.883Z,16.70
2023-03-01T11:17:27.163Z,14.90
2023-03-01T11:20:36.150Z,15.50
2023-03-01T11:23:12.262Z,20.60
2023-03-01T11:25:47.383Z,15.40
2023-03-01T11:28:19.770Z,14.90
2023-03-01T11:31:08.281Z,15.20
2023-03-01T11:33:46.607Z,15.00
2023-03-01T11:36:39.521Z,15.50
2023-03-01T11:39:48.628Z,17.40
2023-03-01T11:42:26.733Z,17.60
2023-03-01T11:45:01.323Z,15.30
2023-03-01T11:47:39.001Z,17.30
2023-03-01T11:51:09.901Z,14.00
2023-03-01T11:53:54.510Z,15.30
2023-03-01T11:57:01.841Z,17.00
2023-03-01T12:00:02.023Z,14.00
2023-03-01T12:02:38.749Z,17.80
2023-03-01T12:05:27.614Z,15.10
2023-03-01T12:08:25.567Z,16.30
2023-03-01T12:11:22.552Z,18.60
2023-03-01T12:14:08.170Z,19.80
2023-03-01T12:16:58.520Z,20.10
2023-03-01T12:19:45.440Z,19.00
2023-03-01T12:22:30.516Z,18.00
2023-03-01T12:25:23.427Z,23.40
2023-03-01T12:28:16.330Z,18.00
2023-03-01T12:31:16.351Z,20.20
2023-03-01T12:34:23.556Z,18.10
2023-03-01T12:37:18.486Z,20.20
2023-03-01T12:40:15.417Z,18.90
2023-03-01T12:43:37.454Z,20.10
2023-03-01T12:46:26.869Z,18.00
2023-03-01T12:49:14.370Z,17.90
2023-03-01T12:51:56.865Z,17.70
2023-03-01T12:54:36.809Z,18.00
2023-03-01T12:57:20.497Z,16.90
2023-03-01T13:00:19.106Z,16.60
2023-03-01T13:02:54.715Z,21.70
2023-03-01T13:05:41.425Z,22.00
2023-03-01T13:08:29.562Z,17.80
2023-03-01T13:11:05.219Z,19.70
2023-03-01T13:13:33.987Z,19.30
2023-03-01T13:16:46.628Z,19.50
2023-03-01T13:19:23.608Z,17.70
2023-03-01T13:21:55.886Z,15.60
2023-03-01T13:24:43.698Z,15.20
2023-03-01T13:27:26.430Z,14.40
2023-03-01T13:30:01.021Z,16.10
2023-03-01T13:33:04.509Z,17.00
2023-03-01T13:35:46.184Z,16.00
2023-03-01T13:38:43.757Z,18.60
2023-03-01T13:41:37.985Z,20.50
2023-03-01T13:44:33.627Z,18.20
2023-03-01T13:47:08.429Z,14.30
2023-03-01T13:50:04.124Z,18.90
2023-03-01T13:52:47.868Z,20.00
2023-03-01T13:55:17.953Z,21.10
2023-03-01T13:57:56.882Z,22.00
2023-03-01T14:00:38.322Z,18.90
2023-03-01T14:03:12.922Z,21.90
2023-03-01T14:06:11.167Z,18.30
2023-03-01T14:08:43.256Z,18.30
2023-03-01T14:11:27.908Z,17.90
2023-03-01T14:14:19.039Z,17.20
2023-03-01T14:17:23.533Z,19.10
2023-03-01T14:20:05.639Z,16.00
2023-03-01T14:22:36.856Z,16.60
2023-03-01T14:25:18.493Z,18.80
2023-03-01T14:28:02.929Z,19.20
2023-03-01T14:30:42.749Z,17.00
2023-03-01T14:33:34.660Z,16.50
2023-03-01T14:36:11.708Z,15.20
2023-03-01T14:38:48.065Z,19.50
2023-03-01T14:41:21.286Z,16.80
2023-03-01T14:43:54.646Z,17.90
2023-03-01T14:46:42.546Z,18.30
2023-03-01T14:49:22.048Z,16.60
2023-03-01T14:52:05.630Z,21.20
2023-03-01T14:54:48.742Z,16.50
2023-03-01T14:57:23.072Z,20.40
2023-03-01T14:59:55.742Z,20.90
2023-03-01T15:02:27.574Z,18.90
2023-03-01T15:04:59.420Z,19.20
2023-03-01T15:07:36.721Z,20.70
2023-03-01T15:10:08.112Z,19.00
2023-03-01T15:12:42.333Z,20.90
2023-03-01T15:15:34.662Z,21.30
2023-03-01T15:18:28.947Z,22.80
2023-03-01T15:21:07.794Z,19.40
2023-03-01T15:23:39.582Z,21.10
2023-03-01T15:26:24.113Z,20.10
2023-03-01T15:28:59.272Z,19.00
2023-03-01T15:31:39.742Z,20.60
2023-03-01T15:34:33.443Z,19.80
2023-03-01T15:37:06.749Z,20.20
2023-03-01T15:39:53.758Z,22.40
2023-03-01T15:42:28.463Z,20.80
2023-03-01T15:45:28.311Z,21.10
2023-03-01T15:50:40.812Z,21.30
2023-03-01T15:53:15.630Z,21.70
2023-03-01T15:55:45.121Z,21.10
2023-03-01T15:58:22.399Z,23.70
2023-03-01T16:01:01.971Z,22.40
2023-03-01T16:03:30.999Z,20.70
2023-03-01T16:05:59.794Z,22.40
2023-03-01T16:08:28.498Z,23.70
2023-03-01T16:10:57.385Z,25.80
2023-03-01T16:13:28.335Z,20.90
2023-03-01T16:15:57.810Z,22.30
2023-03-01T16:18:26.553Z,22.00
2023-03-01T16:20:55.711Z,24.60
2023-03-01T16:23:26.169Z,21.30
2023-03-01T16:25:54.788Z,24.20
2023-03-01T16:28:23.444Z,24.80
2023-03-01T16:30:51.974Z,28.10
2023-03-01T16:33:28.292Z,25.50
2023-03-01T16:36:13.293Z,25.40
2023-03-01T16:38:41.835Z,24.60
2023-03-01T16:41:16.934Z,25.30
2023-03-01T16:43:47.973Z,25.00
2023-03-01T16:46:23.887Z,27.30
2023-03-01T16:48:53.173Z,25.80
2023-03-01T16:51:22.725Z,28.50
2023-03-01T16:53:52.430Z,25.10
2023-03-01T16:56:21.220Z,26.30
2023-03-01T16:58:49.844Z,27.90
2023-03-01T17:01:24.674Z,28.80
2023-03-01T17:03:53.854Z,28.60
2023-03-01T17:06:24.508Z,26.30
2023-03-01T17:08:53.562Z,31.50
2023-03-01T17:11:23.399Z,28.50
2023-03-01T17:13:53.066Z,26.30
2023-03-01T17:16:22.297Z,29.30
2023-03-01T17:18:50.949Z,28.80
2023-03-01T17:21:22.611Z,29.60
2023-03-01T17:23:56.835Z,29.70
2023-03-01T17:26:27.798Z,29.00
2023-03-01T17:28:59.410Z,26.20
2023-03-01T17:31:28.361Z,26.70
2023-03-01T17:33:59.818Z,26.40
2023-03-01T17:36:29.825Z,27.40
2023-03-01T17:38:58.412Z,26.90
2023-03-01T17:41:27.357Z,27.40
2023-03-01T17:43:55.839Z,24.60
2023-03-01T17:46:24.950Z,26.00
2023-03-01T17:48:57.030Z,28.20
2023-03-01T17:51:25.600Z,28.90
2023-03-01T17:53:54.475Z,28.50
2023-03-01T17:56:23.021Z,28.70
2023-03-01T17:58:52.032Z,22.70
2023-03-01T18:01:22.140Z,24.30
2023-03-01T18:03:53.383Z,27.20
2023-03-01T18:06:25.254Z,25.40
2023-03-01T18:08:55.430Z,26.80
2023-03-01T18:11:25.955Z,30.30
2023-03-01T18:13:55.842Z,28.20
2023-03-01T18:16:24.791Z,27.70
2023-03-01T18:18:57.881Z,30.20
2023-03-01T18:21:26.522Z,28.90
2023-03-01T18:23:55.328Z,26.30
2023-03-01T18:26:25.344Z,27.20
2023-03-01T18:28:54.551Z,27.00
2023-03-01T18:31:23.060Z,27.30
2023-03-01T18:33:57.595Z,24.50
2023-03-01T18:36:29.779Z,27.40
2023-03-01T18:38:59.083Z,24.00
2023-03-01T18:41:29.284Z,27.60
2023-03-01T18:43:58.741Z,23.20
2023-03-01T18:46:27.364Z,25.70
2023-03-01T18:48:56.144Z,25.30
2023-03-01T18:51:28.026Z,25.30
2023-03-01T18:54:01.368Z,24.30
2023-03-01T18:56:34.375Z,24.40
2023-03-01T18:59:04.350Z,24.70
2023-03-01T19:01:36.685Z,27.10
2023-03-01T19:04:06.033Z,26.90
2023-03-01T19:06:35.590Z,27.90
2023-03-01T19:11:35.766Z,29.30
2023-03-01T19:14:05.133Z,29.60
2023-03-01T19:16:34.582Z,30.90
2023-03-01T19:19:05.492Z,28.40
2023-03-01T19:21:34.598Z,30.50
2023-03-01T19:24:03.362Z,26.70
2023-03-01T19:26:33.173Z,26.90
2023-03-01T19:29:03.764Z,26.90
2023-03-01T19:31:32.670Z,27.80
2023-03-01T19:34:11.853Z,29.60
2023-03-01T19:36:43.264Z,25.10
2023-03-01T19:39:14.041Z,28.90
2023-03-01T19:41:44.125Z,25.70
2023-03-01T19:44:13.377Z,25.80
2023-03-01T19:46:42.623Z,25.60
2023-03-01T19:49:11.162Z,24.90
2023-03-01T19:51:39.778Z,26.10
2023-03-01T19:54:10.044Z,27.40
2023-03-01T19:56:39.189Z,26.30
2023-03-01T19:59:07.907Z,28.10
2023-03-01T20:01:38.047Z,27.00
2023-03-01T20:04:06.957Z,26.40
2023-03-01T20:06:37.460Z,26.60
2023-03-01T20:09:20.442Z,25.70
2023-03-01T20:11:51.967Z,26.80
2023-03-01T20:14:23.533Z,29.40
2023-03-01T20:16:53.223Z,26.50
2023-03-01T20:19:22.116Z,26.90
2023-03-01T20:21:50.781Z,28.80
2023-03-01T20:24:19.409Z,30.30
2023-03-01T20:26:47.978Z,29.00
2023-03-01T20:29:16.564Z,27.50
2023-03-01T20:31:48.887Z,27.00
2023-03-01T20:34:25.593Z,29.20
2023-03-01T20:36:54.712Z,28.90
2023-03-01T20:39:23.269Z,26.60
2023-03-01T20:41:51.785Z,27.40
2023-03-01T20:44:20.339Z,28.90
2023-03-01T20:46:49.848Z,28.50
2023-03-01T20:49:18.342Z,28.80
2023-03-01T20:51:47.012Z,26.40
2023-03-01T20:54:15.773Z,27.80
2023-03-01T20:56:44.437Z,26.60
2023-03-01T20:59:13.225Z,28.00
2023-03-01T21:01:47.513Z,27.90
2023-03-01T21:04:18.166Z,25.50
2023-03-01T21:06:46.816Z,31.20
2023-03-01T21:09:15.315Z,26.40
2023-03-01T21:11:44.048Z,28.70
2023-03-01T21:14:12.826Z,27.90
2023-03-01T21:16:41.311Z,28.10
2023-03-01T21:19:09.936Z,30.90
2023-03-01T21:21:38.615Z,28.80
2023-03-01T21:24:10.634Z,31.80
2023-03-01T21:26:39.467Z,27.30
2023-03-01T21:29:07.982Z,31.70
2023-03-01T21:31:36.589Z,30.80
2023-03-01T21:34:06.688Z,30.00
2023-03-01T21:36:36.382Z,30.00
2023-03-01T21:39:06.840Z,30.60
2023-03-01T21:41:37.913Z,28.30
2023-03-01T21:44:07.730Z,28.80
2023-03-01T21:46:39.859Z,29.90
2023-03-01T21:49:11.007Z,30.10
2023-03-01T21:51:39.665Z,28.20
2023-03-01T21:54:08.393Z,29.80
2023-03-01T21:56:39.383Z,30.70
2023-03-01T21:59:15.464Z,32.00
2023-03-01T22:01:44.814Z,30.40
2023-03-01T22:04:14.445Z,29.90
2023-03-01T22:09:20.582Z,31.90
2023-03-01T22:11:54.160Z,34.30
2023-03-01T22:14:22.713Z,33.70
2023-03-01T22:16:51.879Z,34.70
2023-03-01T22:19:21.169Z,33.10
2023-03-01T22:21:52.776Z,34.20
2023-03-01T22:24:25.562Z,36.60
2023-03-01T22:26:54.882Z,32.70
2023-03-01T22:29:29.144Z,31.10
2023-03-01T22:31:58.943Z,31.50
2023-03-01T22:34:28.173Z,31.40
2023-03-01T22:36:56.985Z,32.50
2023-03-01T22:39:25.471Z,32.10
2023-03-01T22:41:55.074Z,30.10
2023-03-01T22:44:24.679Z,31.60
2023-03-01T22:49:22.176Z,32.40
2023-03-01T22:51:51.678Z,28.60
2023-03-01T22:54:20.725Z,32.10
2023-03-01T22:56:50.598Z,28.80
2023-03-01T22:59:25.201Z,32.60
2023-03-01T23:01:55.024Z,29.80
2023-03-01T23:04:24.507Z,29.90
2023-03-01T23:06:55.915Z,26.30
2023-03-01T23:09:34.507Z,24.50
2023-03-01T23:12:06.956Z,29.60
2023-03-01T23:14:36.464Z,32.00
2023-03-01T23:17:05.668Z,25.80
2023-03-01T23:19:34.546Z,25.40
2023-03-01T23:22:08.070Z,26.70
2023-03-01T23:24:39.048Z,25.90
2023-03-01T23:27:07.799Z,27.40
2023-03-01T23:29:36.824Z,28.70
2023-03-01T23:32:05.382Z,30.90
2023-03-01T23:34:34.392Z,28.40
2023-03-01T23:37:04.028Z,27.10
2023-03-01T23:42:01.284Z,25.90
2023-03-01T23:44:29.801Z,31.30
2023-03-01T23:46:58.471Z,30.90
2023-03-01T23:49:28.182Z,31.00
2023-03-01T23:51:57.012Z,25.70
2023-03-01T23:54:26.086Z,28.80
2023-03-01T23:56:54.623Z,26.50
2023-03-01T23:59:24.511Z,27.70
